createdAt,value
2023-04-20T00:00:51.001Z,99303.92
2023-04-20T00:03:21.877Z,99303.96
2023-04-20T00:05:50.009Z,99300.13
2023-04-20T00:08:19.078Z,99298.50
2023-04-20T00:10:46.965Z,99297.98
2023-04-20T00:13:15.027Z,99298.17
2023-04-20T00:15:42.893Z,99297.11
2023-04-20T00:18:11.117Z,99298.04
2023-04-20T00:20:39.436Z,99300.70
2023-04-20T00:23:07.549Z,99297.66
2023-04-20T00:25:35.713Z,99296.44
2023-04-20T00:28:03.686Z,99295.50
2023-04-20T00:30:31.628Z,99288.27
2023-04-20T00:32:59.541Z,99286.42
2023-04-20T00:35:27.465Z,99282.83
2023-04-20T00:37:55.553Z,99282.11
2023-04-20T00:40:26.722Z,99279.60
2023-04-20T00:42:54.591Z,99274.56
2023-04-20T00:45:24.744Z,99274.91
2023-04-20T00:47:52.868Z,99269.34
2023-04-20T00:50:21.790Z,99267.88
2023-04-20T00:52:49.596Z,99266.13
2023-04-20T00:55:18.356Z,99263.09
2023-04-20T00:57:46.230Z,99260.59
2023-04-20T01:00:14.387Z,99257.39
2023-04-20T01:02:43.155Z,99256.89
2023-04-20T01:05:11.365Z,99250.11
2023-04-20T01:07:39.561Z,99251.39
2023-04-20T01:10:08.265Z,99251.77
2023-04-20T01:12:36.397Z,99256.28
2023-04-20T01:15:08.495Z,99252.77
2023-04-20T01:17:39.949Z,99250.73
2023-04-20T01:20:09.241Z,99250.10
2023-04-20T01:22:47.663Z,99245.64
2023-04-20T01:25:15.996Z,99244.98
2023-04-20T01:27:44.202Z,99244.30
2023-04-20T01:30:12.456Z,99242.73
2023-04-20T01:32:41.110Z,99242.30
2023-04-20T01:35:09.864Z,99240.71
2023-04-20T01:37:39.831Z,99239.47
2023-04-20T01:40:12.064Z,99240.02
2023-04-20T01:42:40.184Z,99243.14
2023-04-20T01:45:08.528Z,99247.83
2023-04-20T01:47:36.965Z,99245.71
2023-04-20T01:50:05.395Z,99247.05
2023-04-20T01:52:34.209Z,99242.59
2023-04-20T01:55:02.046Z,99238.48
2023-04-20T01:57:30.265Z,99236.48
2023-04-20T01:59:58.300Z,99230.30
2023-04-20T02:02:26.436Z,99230.86
2023-04-20T02:04:55.433Z,99226.43
2023-04-20T02:07:23.356Z,99225.55
2023-04-20T02:09:51.717Z,99222.86
2023-04-20T02:12:19.674Z,99222.39
2023-04-20T02:14:47.570Z,99222.98
2023-04-20T02:17:15.789Z,99221.95
2023-04-20T02:19:43.941Z,99222.55
2023-04-20T02:22:11.794Z,99219.02
2023-04-20T02:24:39.681Z,99219.45
2023-04-20T02:27:07.659Z,99222.52
2023-04-20T02:29:35.846Z,99216.09
2023-04-20T02:32:04.290Z,99214.48
2023-04-20T02:34:32.162Z,99215.19
2023-04-20T02:37:00.080Z,99214.46
2023-04-20T02:39:28.032Z,99211.56
2023-04-20T02:41:56.065Z,99212.84
2023-04-20T02:44:24.422Z,99210.21
2023-04-20T02:46:52.780Z,99205.92
2023-04-20T02:49:21.682Z,99204.05
2023-04-20T02:51:49.687Z,99203.71
2023-04-20T02:54:17.618Z,99203.02
2023-04-20T02:56:45.892Z,99192.84
2023-04-20T02:59:13.835Z,99193.42
2023-04-20T03:02:08.105Z,99197.07
2023-04-20T03:04:36.878Z,99191.92
2023-04-20T03:07:20.341Z,99195.40
2023-04-20T03:09:49.463Z,99197.04
2023-04-20T03:12:24.794Z,99198.52
2023-04-20T03:15:11.311Z,99197.39
2023-04-20T03:17:47.177Z,99199.89
2023-04-20T03:20:16.720Z,99198.07
2023-04-20T03:22:44.820Z,99197.66
2023-04-20T03:25:12.793Z,99195.63
2023-04-20T03:27:55.492Z,99187.89
2023-04-20T03:30:23.541Z,99189.33
2023-04-20T03:32:56.005Z,99188.52
2023-04-20T03:35:24.004Z,99189.52
2023-04-20T03:37:51.868Z,99193.75
2023-04-20T03:40:19.663Z,99190.29
2023-04-20T03:42:48.378Z,99190.98
2023-04-20T03:45:16.461Z,99189.33
2023-04-20T03:47:44.454Z,99186.96
2023-04-20T03:50:12.442Z,99185.85
2023-04-20T03:52:41.091Z,99186.09
2023-04-20T03:55:09.986Z,99187.44
2023-04-20T03:57:39.432Z,99188.46
2023-04-20T04:00:10.789Z,99186.41
2023-04-20T04:02:47.720Z,99187.55
2023-04-20T04:05:20.396Z,99180.48
2023-04-20T04:07:50.622Z,99181.64
2023-04-20T04:10:19.152Z,99177.70
2023-04-20T04:12:47.275Z,99179.11
2023-04-20T04:15:15.832Z,99177.98
2023-04-20T04:17:50.256Z,99182.70
2023-04-20T04:21:47.509Z,99181.89
2023-04-20T04:24:17.601Z,99180.04
2023-04-20T04:26:58.549Z,99177.15
2023-04-20T04:29:27.119Z,99181.21
2023-04-20T04:31:55.425Z,99178.25
2023-04-20T04:34:24.211Z,99182.30
2023-04-20T04:36:53.014Z,99186.95
2023-04-20T04:39:26.790Z,99180.83
2023-04-20T04:42:04.289Z,99183.29
2023-04-20T04:44:40.154Z,99184.20
2023-04-20T04:47:09.604Z,99186.35
2023-04-20T04:49:37.947Z,99191.48
2023-04-20T04:52:08.435Z,99189.60
2023-04-20T04:54:37.413Z,99189.09
2023-04-20T04:57:06.176Z,99184.45
2023-04-20T04:59:34.074Z,99181.24
2023-04-20T05:02:02.300Z,99181.69
2023-04-20T05:04:31.101Z,99184.30
2023-04-20T05:06:59.120Z,99184.77
2023-04-20T05:09:33.366Z,99186.33
2023-04-20T05:12:02.789Z,99190.14
2023-04-20T05:14:31.958Z,99184.20
2023-04-20T05:17:00.373Z,99185.44
2023-04-20T05:19:28.246Z,99179.33
2023-04-20T05:21:56.108Z,99179.73
2023-04-20T05:24:23.911Z,99180.19
2023-04-20T05:26:51.730Z,99181.42
2023-04-20T05:29:20.063Z,99183.19
2023-04-20T05:31:47.957Z,99188.27
2023-04-20T05:34:16.729Z,99191.05
2023-04-20T05:36:44.682Z,99189.22
2023-04-20T05:39:12.494Z,99194.05
2023-04-20T05:41:40.758Z,99192.78
2023-04-20T05:44:08.568Z,99198.67
2023-04-20T05:46:37.542Z,99201.78
2023-04-20T05:49:06.542Z,99198.86
2023-04-20T05:51:34.437Z,99207.40
2023-04-20T05:54:03.086Z,99206.31
2023-04-20T05:56:31.664Z,99206.71
2023-04-20T05:58:59.736Z,99207.44
2023-04-20T06:01:27.630Z,99206.64
2023-04-20T06:03:55.847Z,99216.98
2023-04-20T06:06:24.045Z,99218.89
2023-04-20T06:08:52.334Z,99219.29
2023-04-20T06:11:20.637Z,99211.14
2023-04-20T06:13:48.914Z,99207.47
2023-04-20T06:16:16.901Z,99209.42
2023-04-20T06:18:44.964Z,99208.60
2023-04-20T06:21:12.828Z,99214.13
2023-04-20T06:23:41.003Z,99203.05
2023-04-20T06:26:10.315Z,99210.66
2023-04-20T06:28:38.173Z,99205.16
2023-04-20T06:31:06.368Z,99207.10
2023-04-20T06:33:34.726Z,99202.52
2023-04-20T06:36:02.560Z,99202.35
2023-04-20T06:38:30.989Z,99204.76
2023-04-20T06:41:02.076Z,99199.52
2023-04-20T06:43:30.741Z,99195.23
2023-04-20T06:45:58.539Z,99193.19
2023-04-20T06:48:32.347Z,99190.73
2023-04-20T06:51:01.802Z,99185.23
2023-04-20T06:53:29.862Z,99181.77
2023-04-20T06:55:57.772Z,99173.40
2023-04-20T06:58:25.774Z,99169.01
2023-04-20T07:00:53.679Z,99162.02
2023-04-20T07:03:21.814Z,99165.31
2023-04-20T07:05:49.855Z,99162.91
2023-04-20T07:08:17.753Z,99158.75
2023-04-20T07:10:45.594Z,99149.88
2023-04-20T07:13:13.407Z,99152.16
2023-04-20T07:15:41.469Z,99150.95
2023-04-20T07:18:09.454Z,99145.85
2023-04-20T07:20:37.640Z,99144.65
2023-04-20T07:23:05.556Z,99150.32
2023-04-20T07:25:33.497Z,99148.28
2023-04-20T07:28:01.721Z,99147.46
2023-04-20T07:30:31.347Z,99144.16
2023-04-20T07:32:59.552Z,99149.88
2023-04-20T07:35:27.460Z,99149.43
2023-04-20T07:37:55.680Z,99149.35
2023-04-20T07:40:23.658Z,99150.05
2023-04-20T07:42:51.611Z,99145.95
2023-04-20T07:45:19.466Z,99145.44
2023-04-20T07:47:51.478Z,99145.73
2023-04-20T07:50:19.610Z,99152.60
2023-04-20T07:52:47.782Z,99138.91
2023-04-20T07:55:17.347Z,99141.95
2023-04-20T07:57:45.413Z,99135.81
2023-04-20T08:00:15.243Z,99134.73
2023-04-20T08:02:46.145Z,99138.85
2023-04-20T08:05:14.547Z,99143.10
2023-04-20T08:07:43.076Z,99142.42
2023-04-20T08:10:11.252Z,99146.60
2023-04-20T08:12:40.524Z,99144.55
2023-04-20T08:15:09.570Z,99142.43
2023-04-20T08:17:38.004Z,99138.27
2023-04-20T08:20:07.289Z,99146.73
2023-04-20T08:22:36.526Z,99149.34
2023-04-20T08:25:05.180Z,99143.71
2023-04-20T08:27:33.436Z,99143.34
2023-04-20T08:30:03.795Z,99143.38
2023-04-20T08:32:33.443Z,99146.77
2023-04-20T08:35:01.327Z,99147.98
2023-04-20T08:37:32.058Z,99151.12
2023-04-20T08:40:00.755Z,99155.68
2023-04-20T08:42:28.712Z,99154.53
2023-04-20T08:44:58.068Z,99150.86
2023-04-20T08:47:26.196Z,99148.65
2023-04-20T08:49:57.700Z,99153.16
2023-04-20T08:52:25.712Z,99152.11
2023-04-20T08:54:57.578Z,99147.55
2023-04-20T08:57:26.497Z,99159.37
2023-04-20T08:59:56.563Z,99153.23
2023-04-20T09:02:24.736Z,99155.83
2023-04-20T09:05:06.114Z,99151.97
2023-04-20T09:07:34.524Z,99157.13
2023-04-20T09:10:02.448Z,99157.11
2023-04-20T09:12:42.691Z,99158.89
2023-04-20T09:15:11.347Z,99163.10
2023-04-20T09:17:41.257Z,99165.98
2023-04-20T09:20:11.389Z,99168.02
2023-04-20T09:22:40.666Z,99163.31
2023-04-20T09:25:17.857Z,99165.36
2023-04-20T09:27:59.203Z,99162.53
2023-04-20T09:30:37.421Z,99160.97
2023-04-20T09:33:08.116Z,99162.19
2023-04-20T09:35:38.190Z,99158.38
2023-04-20T09:38:09.710Z,99157.23
2023-04-20T09:40:37.746Z,99158.19
2023-04-20T09:43:20.973Z,99150.74
2023-04-20T09:45:49.301Z,99153.10
2023-04-20T09:48:19.641Z,99156.00
2023-04-20T09:50:50.644Z,99158.17
2023-04-20T09:53:20.019Z,99163.47
2023-04-20T09:55:48.880Z,99155.65
2023-04-20T09:58:23.834Z,99156.73
2023-04-20T10:00:51.932Z,99155.44
2023-04-20T10:03:21.742Z,99159.34
2023-04-20T10:05:51.680Z,99156.95
2023-04-20T10:08:21.282Z,99155.70
2023-04-20T10:10:50.268Z,99155.19
2023-04-20T10:13:23.385Z,99160.92
2023-04-20T10:15:51.302Z,99153.30
2023-04-20T10:18:20.570Z,99161.70
2023-04-20T10:20:48.945Z,99155.80
2023-04-20T10:23:18.659Z,99159.29
2023-04-20T10:25:57.320Z,99158.41
2023-04-20T10:28:25.234Z,99157.77
2023-04-20T10:30:53.812Z,99154.06
2023-04-20T10:33:22.988Z,99157.64
2023-04-20T10:35:52.250Z,99155.16
2023-04-20T10:38:34.114Z,99159.00
2023-04-20T10:41:12.929Z,99157.77
2023-04-20T10:43:43.877Z,99156.89
2023-04-20T10:46:18.437Z,99156.48
2023-04-20T10:49:13.025Z,99152.83
2023-04-20T10:51:50.784Z,99150.30
2023-04-20T10:54:19.221Z,99153.50
2023-04-20T10:56:51.985Z,99155.10
2023-04-20T10:59:22.096Z,99154.27
2023-04-20T11:01:50.308Z,99152.54
2023-04-20T11:04:19.090Z,99152.47
2023-04-20T11:06:48.347Z,99157.16
2023-04-20T11:09:26.223Z,99156.27
2023-04-20T11:12:07.538Z,99156.73
2023-04-20T11:14:40.518Z,99159.02
2023-04-20T11:17:08.526Z,99162.93
2023-04-20T11:19:37.439Z,99162.83
2023-04-20T11:22:06.457Z,99161.88
2023-04-20T11:24:35.988Z,99168.32
2023-04-20T11:27:04.796Z,99168.55
2023-04-20T11:29:36.330Z,99168.23
2023-04-20T11:32:09.332Z,99175.27
2023-04-20T11:34:39.122Z,99180.90
2023-04-20T11:37:08.063Z,99181.79
2023-04-20T11:39:37.260Z,99184.81
2023-04-20T11:42:05.791Z,99189.98
2023-04-20T11:44:36.680Z,99187.02
2023-04-20T11:47:05.046Z,99184.82
2023-04-20T11:49:33.220Z,99182.68
2023-04-20T11:52:01.315Z,99177.70
2023-04-20T11:54:30.654Z,99183.54
2023-04-20T11:56:59.122Z,99185.44
2023-04-20T11:59:27.005Z,99188.15
2023-04-20T12:01:54.920Z,99177.67
2023-04-20T12:04:23.086Z,99173.50
2023-04-20T12:06:51.397Z,99169.21
2023-04-20T12:09:19.593Z,99164.92
2023-04-20T12:11:47.898Z,99157.48
2023-04-20T12:14:15.910Z,99157.14
2023-04-20T12:16:43.743Z,99159.63
2023-04-20T12:19:11.695Z,99155.36
2023-04-20T12:21:39.524Z,99161.71
2023-04-20T12:24:08.041Z,99157.02
2023-04-20T12:26:38.826Z,99158.66
2023-04-20T12:29:07.576Z,99157.64
2023-04-20T12:31:36.154Z,99158.89
2023-04-20T12:34:04.351Z,99158.70
2023-04-20T12:36:32.674Z,99150.67
2023-04-20T12:39:01.828Z,99153.81
2023-04-20T12:41:29.760Z,99144.11
2023-04-20T12:43:57.735Z,99142.67
2023-04-20T12:46:25.684Z,99141.52
2023-04-20T12:48:53.700Z,99142.89
2023-04-20T12:51:21.663Z,99143.86
2023-04-20T12:53:49.551Z,99142.66
2023-04-20T12:56:17.457Z,99140.27
2023-04-20T12:58:45.454Z,99140.02
2023-04-20T13:01:13.335Z,99139.07
2023-04-20T13:03:42.546Z,99135.64
2023-04-20T13:06:13.655Z,99133.50
2023-04-20T13:08:42.205Z,99128.45
2023-04-20T13:11:15.402Z,99130.91
2023-04-20T13:13:43.755Z,99131.63
2023-04-20T13:16:11.789Z,99128.48
2023-04-20T13:18:39.685Z,99129.85
2023-04-20T13:21:08.391Z,99130.91
2023-04-20T13:23:38.207Z,99130.34
2023-04-20T13:26:06.554Z,99131.91
2023-04-20T13:28:34.444Z,99142.31
2023-04-20T13:31:02.291Z,99144.30
2023-04-20T13:33:30.320Z,99143.38
2023-04-20T13:35:58.134Z,99144.52
2023-04-20T13:38:26.003Z,99146.23
2023-04-20T13:40:53.920Z,99158.45
2023-04-20T13:43:21.972Z,99162.81
2023-04-20T13:45:49.850Z,99156.88
2023-04-20T13:48:17.837Z,99163.38
2023-04-20T13:50:47.396Z,99163.23
2023-04-20T13:53:15.406Z,99164.31
2023-04-20T13:55:43.298Z,99158.70
2023-04-20T13:58:11.396Z,99150.80
2023-04-20T14:00:39.386Z,99151.25
2023-04-20T14:03:09.680Z,99143.16
2023-04-20T14:05:38.919Z,99135.84
2023-04-20T14:08:07.408Z,99136.86
2023-04-20T14:10:35.412Z,99139.84
2023-04-20T14:13:03.471Z,99142.45
2023-04-20T14:15:31.686Z,99143.05
2023-04-20T14:18:00.679Z,99136.98
2023-04-20T14:20:28.905Z,99137.92
2023-04-20T14:22:56.898Z,99142.91
2023-04-20T14:25:24.819Z,99143.41
2023-04-20T14:27:52.651Z,99142.34
2023-04-20T14:30:20.706Z,99142.25
2023-04-20T14:32:56.010Z,99142.84
2023-04-20T14:35:24.736Z,99142.34
2023-04-20T14:37:52.914Z,99146.04
2023-04-20T14:40:20.891Z,99140.33
2023-04-20T14:42:48.942Z,99141.05
2023-04-20T14:45:16.891Z,99134.96
2023-04-20T14:47:44.971Z,99135.98
2023-04-20T14:50:12.922Z,99138.24
2023-04-20T14:52:40.952Z,99133.69
2023-04-20T14:55:08.969Z,99136.39
2023-04-20T14:57:37.135Z,99135.93
2023-04-20T15:00:06.154Z,99136.96
2023-04-20T15:02:34.809Z,99130.23
2023-04-20T15:05:04.685Z,99115.13
2023-04-20T15:07:34.620Z,99115.90
2023-04-20T15:10:02.924Z,99118.36
2023-04-20T15:12:31.168Z,99123.50
2023-04-20T15:14:59.081Z,99130.30
2023-04-20T15:17:27.032Z,99127.79
2023-04-20T15:19:54.919Z,99128.69
2023-04-20T15:22:23.105Z,99132.13
2023-04-20T15:24:51.140Z,99134.30
2023-04-20T15:27:19.031Z,99137.39
2023-04-20T15:29:46.999Z,99130.44
2023-04-20T15:32:14.942Z,99132.34
2023-04-20T15:34:43.170Z,99128.83
2023-04-20T15:37:11.104Z,99130.91
2023-04-20T15:39:39.067Z,99130.17
2023-04-20T15:42:07.402Z,99122.21
2023-04-20T15:44:35.424Z,99121.27
2023-04-20T15:47:03.538Z,99121.09
2023-04-20T15:49:31.924Z,99120.48
2023-04-20T15:51:59.864Z,99110.95
2023-04-20T15:54:27.752Z,99112.48
2023-04-20T15:56:55.736Z,99114.73
2023-04-20T15:59:23.633Z,99118.23
2023-04-20T16:01:51.693Z,99110.25
2023-04-20T16:04:20.205Z,99107.33
2023-04-20T16:06:48.608Z,99112.52
2023-04-20T16:09:17.410Z,99113.20
2023-04-20T16:11:46.860Z,99114.98
2023-04-20T16:14:14.677Z,99114.08
2023-04-20T16:16:42.716Z,99116.04
2023-04-20T16:19:11.555Z,99116.73
2023-04-20T16:21:39.443Z,99110.10
2023-04-20T16:24:07.468Z,99108.84
2023-04-20T16:26:35.301Z,99111.38
2023-04-20T16:29:03.582Z,99115.77
2023-04-20T16:31:31.599Z,99121.73
2023-04-20T16:34:00.164Z,99118.16
2023-04-20T16:38:50.276Z,99112.58
2023-04-20T16:41:18.465Z,99119.77
2023-04-20T16:43:46.652Z,99114.11
2023-04-20T16:46:16.393Z,99116.75
2023-04-20T16:48:44.731Z,99114.71
2023-04-20T16:51:12.569Z,99116.13
2023-04-20T16:53:40.708Z,99113.16
2023-04-20T16:56:10.929Z,99115.21
2023-04-20T16:58:39.501Z,99117.60
2023-04-20T17:01:07.782Z,99116.08
2023-04-20T17:03:36.048Z,99111.35
2023-04-20T17:06:07.489Z,99108.73
2023-04-20T17:08:39.259Z,99109.36
2023-04-20T17:11:07.217Z,99113.56
2023-04-20T17:13:38.155Z,99117.08
2023-04-20T17:16:06.241Z,99115.07
2023-04-20T17:18:35.222Z,99110.87
2023-04-20T17:21:03.364Z,99111.15
2023-04-20T17:23:33.803Z,99110.50
2023-04-20T17:26:02.563Z,99104.45
2023-04-20T17:28:30.796Z,99104.48
2023-04-20T17:30:58.744Z,99106.66
2023-04-20T17:33:26.807Z,99105.33
2023-04-20T17:35:56.934Z,99102.94
2023-04-20T17:38:24.746Z,99104.66
2023-04-20T17:40:52.886Z,99104.80
2023-04-20T17:43:20.940Z,99107.33
2023-04-20T17:45:50.243Z,99107.20
2023-04-20T17:48:18.348Z,99105.82
2023-04-20T17:50:50.116Z,99105.27
2023-04-20T17:53:18.031Z,99099.06
2023-04-20T17:55:46.137Z,99104.05
2023-04-20T17:58:14.129Z,99108.02
2023-04-20T18:00:43.013Z,99108.19
2023-04-20T18:03:11.534Z,99118.79
2023-04-20T18:05:41.732Z,99116.14
2023-04-20T18:08:10.387Z,99117.07
2023-04-20T18:10:38.373Z,99121.48
2023-04-20T18:13:06.985Z,99127.58
2023-04-20T18:15:35.039Z,99132.08
2023-04-20T18:18:03.140Z,99136.50
2023-04-20T18:20:32.361Z,99132.01
2023-04-20T18:23:00.734Z,99134.31
2023-04-20T18:25:28.636Z,99136.23
2023-04-20T18:27:56.562Z,99140.23
2023-04-20T18:30:24.872Z,99139.05
2023-04-20T18:32:53.932Z,99142.26
2023-04-20T18:35:21.940Z,99144.40
2023-04-20T18:37:51.863Z,99151.56
2023-04-20T18:40:19.771Z,99147.20
2023-04-20T18:42:47.696Z,99145.20
2023-04-20T18:45:16.075Z,99143.95
2023-04-20T18:47:44.045Z,99141.25
2023-04-20T18:50:12.036Z,99146.00
2023-04-20T18:52:40.016Z,99146.45
2023-04-20T18:55:09.090Z,99146.73
2023-04-20T18:57:37.150Z,99151.77
2023-04-20T19:00:08.262Z,99156.88
2023-04-20T19:02:36.589Z,99171.43
2023-04-20T19:05:05.094Z,99166.13
2023-04-20T19:07:33.556Z,99160.17
2023-04-20T19:10:01.543Z,99162.55
2023-04-20T19:12:29.605Z,99173.89
2023-04-20T19:14:57.474Z,99186.61
2023-04-20T19:17:25.472Z,99196.20
2023-04-20T19:19:55.212Z,99193.97
2023-04-20T19:22:23.332Z,99193.46
2023-04-20T19:24:51.230Z,99191.67
2023-04-20T19:27:19.047Z,99187.71
2023-04-20T19:29:46.969Z,99188.59
2023-04-20T19:32:14.883Z,99187.52
2023-04-20T19:34:42.746Z,99181.60
2023-04-20T19:37:10.969Z,99186.27
2023-04-20T19:39:39.167Z,99188.45
2023-04-20T19:42:07.785Z,99192.29
2023-04-20T19:44:36.163Z,99191.49
2023-04-20T19:47:04.238Z,99190.76
2023-04-20T19:49:32.717Z,99187.69
2023-04-20T19:52:00.660Z,99188.55
2023-04-20T19:54:28.621Z,99192.10
2023-04-20T19:56:57.680Z,99189.08
2023-04-20T19:59:26.757Z,99189.60
2023-04-20T20:01:54.716Z,99188.34
2023-04-20T20:04:22.845Z,99191.14
2023-04-20T20:06:51.361Z,99191.38
2023-04-20T20:09:23.166Z,99194.44
2023-04-20T20:11:52.059Z,99189.27
2023-04-20T20:14:20.046Z,99184.99
2023-04-20T20:16:47.966Z,99180.89
2023-04-20T20:19:18.217Z,99179.33
2023-04-20T20:21:46.507Z,99176.88
2023-04-20T20:24:14.425Z,99171.41
2023-04-20T20:26:42.309Z,99174.59
2023-04-20T20:29:10.465Z,99182.02
2023-04-20T20:31:38.778Z,99190.20
2023-04-20T20:34:08.976Z,99191.95
2023-04-20T20:36:37.413Z,99190.29
2023-04-20T20:39:06.974Z,99184.04
2023-04-20T20:41:35.438Z,99176.77
2023-04-20T20:44:03.729Z,99173.17
2023-04-20T20:46:32.233Z,99171.08
2023-04-20T20:49:01.175Z,99168.33
2023-04-20T20:51:29.581Z,99170.63
2023-04-20T20:53:58.156Z,99165.59
2023-04-20T20:56:26.343Z,99162.33
2023-04-20T20:58:54.435Z,99166.41
2023-04-20T21:01:22.643Z,99168.21
2023-04-20T21:03:50.828Z,99168.04
2023-04-20T21:06:18.946Z,99166.83
2023-04-20T21:08:46.892Z,99164.73
2023-04-20T21:11:14.844Z,99163.09
2023-04-20T21:13:42.984Z,99165.76
2023-04-20T21:16:10.952Z,99166.96
2023-04-20T21:18:39.054Z,99169.38
2023-04-20T21:21:06.907Z,99171.23
2023-04-20T21:23:34.872Z,99169.11
2023-04-20T21:26:02.865Z,99168.73
2023-04-20T21:28:31.556Z,99168.16
2023-04-20T21:30:59.471Z,99162.19
2023-04-20T21:33:27.746Z,99156.27
2023-04-20T21:35:57.681Z,99156.38
2023-04-20T21:38:26.879Z,99153.48
2023-04-20T21:40:54.725Z,99150.77
2023-04-20T21:43:22.846Z,99148.81
2023-04-20T21:45:51.636Z,99145.12
2023-04-20T21:48:19.717Z,99140.89
2023-04-20T21:50:47.913Z,99143.86
2023-04-20T21:53:15.816Z,99148.15
2023-04-20T21:55:43.696Z,99147.73
2023-04-20T21:58:11.624Z,99137.58
2023-04-20T22:00:39.681Z,99138.88
2023-04-20T22:03:07.990Z,99139.20
2023-04-20T22:05:36.669Z,99138.55
2023-04-20T22:08:04.848Z,99137.98
2023-04-20T22:10:33.086Z,99143.88
2023-04-20T22:13:00.983Z,99138.13
2023-04-20T22:15:28.969Z,99131.07
2023-04-20T22:18:00.557Z,99128.54
2023-04-20T22:20:28.529Z,99124.19
2023-04-20T22:22:57.447Z,99117.23
2023-04-20T22:25:25.342Z,99113.94
2023-04-20T22:27:53.191Z,99118.95
2023-04-20T22:30:21.107Z,99116.90
2023-04-20T22:32:49.126Z,99114.21
2023-04-20T22:35:17.062Z,99110.69
2023-04-20T22:37:44.970Z,99109.81
2023-04-20T22:40:14.161Z,99108.66
2023-04-20T22:42:42.139Z,99101.83
2023-04-20T22:45:11.794Z,99097.67
2023-04-20T22:47:39.717Z,99094.02
2023-04-20T22:50:09.709Z,99097.69
2023-04-20T22:52:38.620Z,99094.39
2023-04-20T22:55:07.669Z,99098.89
2023-04-20T22:57:35.749Z,99097.05
2023-04-20T23:00:07.851Z,99093.77
2023-04-20T23:02:37.562Z,99094.11
2023-04-20T23:05:06.490Z,99091.35
2023-04-20T23:07:35.976Z,99089.80
2023-04-20T23:10:06.117Z,99087.94
2023-04-20T23:12:34.173Z,99086.08
2023-04-20T23:15:02.363Z,99089.10
2023-04-20T23:17:30.478Z,99086.59
2023-04-20T23:19:58.497Z,99088.01
2023-04-20T23:22:26.794Z,99086.64
2023-04-20T23:24:57.435Z,99089.41
2023-04-20T23:27:25.605Z,99085.08
2023-04-20T23:29:53.539Z,99083.59
2023-04-20T23:32:21.456Z,99083.17
2023-04-20T23:34:49.265Z,99085.73
2023-04-20T23:37:17.184Z,99086.95
2023-04-20T23:39:45.239Z,99090.14
2023-04-20T23:42:13.084Z,99092.21
2023-04-20T23:44:41.202Z,99095.20
2023-04-20T23:47:09.126Z,99094.49
2023-04-20T23:49:37.140Z,99094.98
2023-04-20T23:52:05.060Z,99095.95
2023-04-20T23:54:33.463Z,99101.45
2023-04-20T23:57:02.737Z,99105.89
2023-04-20T23:59:31.242Z,99101.76
